sensor_id;sensor_type;location;lat;lon;timestamp;P1;durP1;ratioP1;P2;durP2;ratioP2
37485;SDS011;23341;50.296;18.960;2022-07-10T00:02:42;9.07;;;6.85;;
37485;SDS011;23341;50.296;18.960;2022-07-10T00:07:47;9.15;;;6.80;;
37485;SDS011;23341;50.296;18.960;2022-07-10T00:12:52;14.23;;;7.38;;
37485;SDS011;23341;50.296;18.960;2022-07-10T00:17:55;8.77;;;7.10;;
37485;SDS011;23341;50.296;18.960;2022-07-10T00:22:59;13.18;;;6.93;;
37485;SDS011;23341;50.296;18.960;2022-07-10T00:28:04;10.98;;;7.03;;
37485;SDS011;23341;50.296;18.960;2022-07-10T00:33:08;11.18;;;6.90;;
37485;SDS011;23341;50.296;18.960;2022-07-10T00:38:11;13.75;;;8.27;;
37485;SDS011;23341;50.296;18.960;2022-07-10T00:43:16;11.85;;;7.20;;
37485;SDS011;23341;50.296;18.960;2022-07-10T00:48:20;10.45;;;6.57;;
37485;SDS011;23341;50.296;18.960;2022-07-10T00:53:23;6.93;;;6.05;;
37485;SDS011;23341;50.296;18.960;2022-07-10T00:58:28;7.70;;;6.03;;
37485;SDS011;23341;50.296;18.960;2022-07-10T01:03:31;9.13;;;7.35;;
37485;SDS011;23341;50.296;18.960;2022-07-10T01:08:35;19.67;;;8.00;;
37485;SDS011;23341;50.296;18.960;2022-07-10T01:13:40;12.63;;;7.70;;
37485;SDS011;23341;50.296;18.960;2022-07-10T01:18:45;12.05;;;6.90;;
37485;SDS011;23341;50.296;18.960;2022-07-10T01:23:50;7.07;;;5.80;;
37485;SDS011;23341;50.296;18.960;2022-07-10T01:28:53;7.03;;;5.47;;
37485;SDS011;23341;50.296;18.960;2022-07-10T01:33:58;8.30;;;6.90;;
37485;SDS011;23341;50.296;18.960;2022-07-10T01:39:04;10.10;;;7.22;;
37485;SDS011;23341;50.296;18.960;2022-07-10T01:44:08;11.90;;;7.25;;
37485;SDS011;23341;50.296;18.960;2022-07-10T01:49:11;8.75;;;7.90;;
37485;SDS011;23341;50.296;18.960;2022-07-10T01:54:17;9.57;;;8.60;;
37485;SDS011;23341;50.296;18.960;2022-07-10T01:59:20;8.80;;;8.00;;
37485;SDS011;23341;50.296;18.960;2022-07-10T02:04:23;10.48;;;9.40;;
37485;SDS011;23341;50.296;18.960;2022-07-10T02:09:47;11.82;;;9.27;;
37485;SDS011;23341;50.296;18.960;2022-07-10T02:14:50;13.32;;;10.15;;
37485;SDS011;23341;50.296;18.960;2022-07-10T02:19:54;12.05;;;8.80;;
37485;SDS011;23341;50.296;18.960;2022-07-10T02:24:59;10.98;;;8.10;;
37485;SDS011;23341;50.296;18.960;2022-07-10T02:30:02;13.25;;;8.70;;
37485;SDS011;23341;50.296;18.960;2022-07-10T02:35:07;11.02;;;7.72;;
37485;SDS011;23341;50.296;18.960;2022-07-10T02:40:12;7.38;;;6.65;;
37485;SDS011;23341;50.296;18.960;2022-07-10T02:45:16;8.65;;;6.30;;
37485;SDS011;23341;50.296;18.960;2022-07-10T02:50:20;7.47;;;5.40;;
37485;SDS011;23341;50.296;18.960;2022-07-10T02:55:25;13.40;;;5.45;;
37485;SDS011;23341;50.296;18.960;2022-07-10T03:00:28;5.55;;;5.05;;
37485;SDS011;23341;50.296;18.960;2022-07-10T03:05:32;6.65;;;4.13;;
37485;SDS011;23341;50.296;18.960;2022-07-10T03:10:38;4.32;;;3.85;;
37485;SDS011;23341;50.296;18.960;2022-07-10T03:15:42;4.05;;;3.55;;
37485;SDS011;23341;50.296;18.960;2022-07-10T03:20:46;4.40;;;4.00;;
37485;SDS011;23341;50.296;18.960;2022-07-10T03:25:51;4.20;;;3.67;;
37485;SDS011;23341;50.296;18.960;2022-07-10T03:30:56;4.90;;;4.40;;
37485;SDS011;23341;50.296;18.960;2022-07-10T03:36:00;4.15;;;3.75;;
37485;SDS011;23341;50.296;18.960;2022-07-10T03:41:06;4.97;;;3.80;;
37485;SDS011;23341;50.296;18.960;2022-07-10T03:46:10;7.03;;;5.05;;
37485;SDS011;23341;50.296;18.960;2022-07-10T03:51:13;6.15;;;4.22;;
37485;SDS011;23341;50.296;18.960;2022-07-10T03:56:18;7.00;;;5.18;;
37485;SDS011;23341;50.296;18.960;2022-07-10T04:01:36;12.73;;;5.85;;
37485;SDS011;23341;50.296;18.960;2022-07-10T04:06:39;6.28;;;5.05;;
37485;SDS011;23341;50.296;18.960;2022-07-10T04:11:44;9.75;;;5.82;;
37485;SDS011;23341;50.296;18.960;2022-07-10T04:16:47;8.18;;;5.15;;
37485;SDS011;23341;50.296;18.960;2022-07-10T04:21:51;11.05;;;5.13;;
37485;SDS011;23341;50.296;18.960;2022-07-10T04:26:56;7.65;;;6.68;;
37485;SDS011;23341;50.296;18.960;2022-07-10T04:31:59;7.88;;;7.10;;
37485;SDS011;23341;50.296;18.960;2022-07-10T04:37:03;10.20;;;7.40;;
37485;SDS011;23341;50.296;18.960;2022-07-10T04:42:08;7.70;;;6.47;;
37485;SDS011;23341;50.296;18.960;2022-07-10T04:47:12;6.22;;;5.20;;
37485;SDS011;23341;50.296;18.960;2022-07-10T04:52:15;4.25;;;3.95;;
37485;SDS011;23341;50.296;18.960;2022-07-10T04:57:20;4.70;;;3.88;;
37485;SDS011;23341;50.296;18.960;2022-07-10T05:02:23;6.28;;;5.65;;
37485;SDS011;23341;50.296;18.960;2022-07-10T05:07:27;10.35;;;7.38;;
37485;SDS011;23341;50.296;18.960;2022-07-10T05:12:31;5.47;;;4.07;;
37485;SDS011;23341;50.296;18.960;2022-07-10T05:17:35;2.80;;;2.60;;
37485;SDS011;23341;50.296;18.960;2022-07-10T05:22:38;2.97;;;2.78;;
37485;SDS011;23341;50.296;18.960;2022-07-10T05:27:43;2.90;;;2.58;;
37485;SDS011;23341;50.296;18.960;2022-07-10T05:32:46;5.13;;;2.85;;
37485;SDS011;23341;50.296;18.960;2022-07-10T05:37:49;4.38;;;2.30;;
37485;SDS011;23341;50.296;18.960;2022-07-10T05:42:54;4.72;;;2.83;;
37485;SDS011;23341;50.296;18.960;2022-07-10T05:47:58;2.60;;;2.40;;
37485;SDS011;23341;50.296;18.960;2022-07-10T05:53:01;4.93;;;2.47;;
37485;SDS011;23341;50.296;18.960;2022-07-10T05:58:06;4.80;;;3.33;;
37485;SDS011;23341;50.296;18.960;2022-07-10T06:03:09;7.28;;;3.15;;
37485;SDS011;23341;50.296;18.960;2022-07-10T06:08:13;2.70;;;2.50;;
37485;SDS011;23341;50.296;18.960;2022-07-10T06:13:18;4.20;;;2.55;;
37485;SDS011;23341;50.296;18.960;2022-07-10T06:18:22;4.35;;;3.33;;
37485;SDS011;23341;50.296;18.960;2022-07-10T06:23:25;2.55;;;2.28;;
37485;SDS011;23341;50.296;18.960;2022-07-10T06:28:30;4.55;;;1.75;;
37485;SDS011;23341;50.296;18.960;2022-07-10T06:33:33;4.53;;;2.00;;
37485;SDS011;23341;50.296;18.960;2022-07-10T06:38:38;2.70;;;2.15;;
37485;SDS011;23341;50.296;18.960;2022-07-10T06:43:45;2.20;;;2.00;;
37485;SDS011;23341;50.296;18.960;2022-07-10T06:48:49;1.83;;;1.60;;
37485;SDS011;23341;50.296;18.960;2022-07-10T06:53:52;7.18;;;2.60;;
37485;SDS011;23341;50.296;18.960;2022-07-10T06:58:57;6.28;;;2.88;;
37485;SDS011;23341;50.296;18.960;2022-07-10T07:04:00;5.78;;;1.55;;
37485;SDS011;23341;50.296;18.960;2022-07-10T07:09:04;5.00;;;2.10;;
37485;SDS011;23341;50.296;18.960;2022-07-10T07:14:09;2.78;;;1.75;;
37485;SDS011;23341;50.296;18.960;2022-07-10T07:19:12;1.85;;;1.35;;
37485;SDS011;23341;50.296;18.960;2022-07-10T07:24:19;3.38;;;1.50;;
37485;SDS011;23341;50.296;18.960;2022-07-10T07:29:24;4.85;;;1.70;;
37485;SDS011;23341;50.296;18.960;2022-07-10T07:34:28;6.45;;;2.50;;
37485;SDS011;23341;50.296;18.960;2022-07-10T07:39:32;3.95;;;1.90;;
37485;SDS011;23341;50.296;18.960;2022-07-10T07:44:37;1.98;;;1.40;;
37485;SDS011;23341;50.296;18.960;2022-07-10T07:49:41;3.28;;;1.40;;
37485;SDS011;23341;50.296;18.960;2022-07-10T07:54:44;3.28;;;2.05;;
37485;SDS011;23341;50.296;18.960;2022-07-10T07:59:49;3.72;;;1.70;;
37485;SDS011;23341;50.296;18.960;2022-07-10T08:04:53;4.20;;;1.95;;
37485;SDS011;23341;50.296;18.960;2022-07-10T08:09:57;2.85;;;1.42;;
37485;SDS011;23341;50.296;18.960;2022-07-10T08:15:02;5.97;;;1.95;;
37485;SDS011;23341;50.296;18.960;2022-07-10T08:20:07;5.95;;;1.77;;
37485;SDS011;23341;50.296;18.960;2022-07-10T08:25:14;4.68;;;2.53;;
37485;SDS011;23341;50.296;18.960;2022-07-10T08:30:19;11.93;;;1.45;;
37485;SDS011;23341;50.296;18.960;2022-07-10T08:35:22;6.43;;;1.40;;
37485;SDS011;23341;50.296;18.960;2022-07-10T08:40:26;4.93;;;1.63;;
37485;SDS011;23341;50.296;18.960;2022-07-10T08:45:39;5.07;;;1.60;;
37485;SDS011;23341;50.296;18.960;2022-07-10T08:50:44;4.43;;;1.30;;
37485;SDS011;23341;50.296;18.960;2022-07-10T08:55:49;5.60;;;2.20;;
37485;SDS011;23341;50.296;18.960;2022-07-10T09:00:57;4.60;;;1.35;;
37485;SDS011;23341;50.296;18.960;2022-07-10T09:06:01;3.10;;;1.38;;
37485;SDS011;23341;50.296;18.960;2022-07-10T09:11:15;5.43;;;1.30;;
37485;SDS011;23341;50.296;18.960;2022-07-10T09:16:23;3.28;;;1.20;;
37485;SDS011;23341;50.296;18.960;2022-07-10T09:21:32;3.67;;;1.10;;
37485;SDS011;23341;50.296;18.960;2022-07-10T09:26:36;5.70;;;1.20;;
37485;SDS011;23341;50.296;18.960;2022-07-10T09:31:51;3.55;;;1.95;;
37485;SDS011;23341;50.296;18.960;2022-07-10T09:36:55;4.88;;;1.60;;
37485;SDS011;23341;50.296;18.960;2022-07-10T09:41:59;5.07;;;1.15;;
37485;SDS011;23341;50.296;18.960;2022-07-10T09:47:05;9.00;;;1.23;;
37485;SDS011;23341;50.296;18.960;2022-07-10T09:52:08;3.38;;;1.20;;
37485;SDS011;23341;50.296;18.960;2022-07-10T09:57:13;1.92;;;1.10;;
37485;SDS011;23341;50.296;18.960;2022-07-10T10:02:21;3.05;;;1.20;;
37485;SDS011;23341;50.296;18.960;2022-07-10T10:07:25;4.22;;;1.30;;
37485;SDS011;23341;50.296;18.960;2022-07-10T10:12:31;4.22;;;1.55;;
37485;SDS011;23341;50.296;18.960;2022-07-10T10:17:40;2.90;;;1.50;;
37485;SDS011;23341;50.296;18.960;2022-07-10T10:22:45;5.50;;;2.28;;
37485;SDS011;23341;50.296;18.960;2022-07-10T10:27:49;7.65;;;2.50;;
37485;SDS011;23341;50.296;18.960;2022-07-10T10:32:55;5.88;;;2.30;;
37485;SDS011;23341;50.296;18.960;2022-07-10T10:37:58;4.25;;;2.25;;
37485;SDS011;23341;50.296;18.960;2022-07-10T10:43:15;4.95;;;2.95;;
37485;SDS011;23341;50.296;18.960;2022-07-10T10:48:20;4.93;;;1.88;;
37485;SDS011;23341;50.296;18.960;2022-07-10T10:53:40;5.43;;;1.70;;
37485;SDS011;23341;50.296;18.960;2022-07-10T10:58:45;4.57;;;1.38;;
37485;SDS011;23341;50.296;18.960;2022-07-10T11:09:22;3.25;;;1.60;;
37485;SDS011;23341;50.296;18.960;2022-07-10T11:14:27;3.70;;;1.70;;
37485;SDS011;23341;50.296;18.960;2022-07-10T11:19:33;3.10;;;1.27;;
37485;SDS011;23341;50.296;18.960;2022-07-10T11:24:45;5.72;;;1.63;;
37485;SDS011;23341;50.296;18.960;2022-07-10T11:29:58;10.10;;;3.03;;
37485;SDS011;23341;50.296;18.960;2022-07-10T11:35:04;5.43;;;1.98;;
37485;SDS011;23341;50.296;18.960;2022-07-10T11:40:10;5.60;;;1.38;;
37485;SDS011;23341;50.296;18.960;2022-07-10T11:45:27;4.20;;;1.05;;
37485;SDS011;23341;50.296;18.960;2022-07-10T11:50:37;5.72;;;1.50;;
37485;SDS011;23341;50.296;18.960;2022-07-10T11:55:41;4.57;;;1.90;;
37485;SDS011;23341;50.296;18.960;2022-07-10T12:00:56;3.50;;;1.48;;
37485;SDS011;23341;50.296;18.960;2022-07-10T12:06:03;2.33;;;1.02;;
37485;SDS011;23341;50.296;18.960;2022-07-10T12:11:10;6.65;;;2.00;;
37485;SDS011;23341;50.296;18.960;2022-07-10T12:16:14;1.92;;;1.30;;
37485;SDS011;23341;50.296;18.960;2022-07-10T12:21:20;3.42;;;1.70;;
37485;SDS011;23341;50.296;18.960;2022-07-10T12:26:24;7.28;;;1.35;;
37485;SDS011;23341;50.296;18.960;2022-07-10T12:31:37;1.75;;;1.08;;
37485;SDS011;23341;50.296;18.960;2022-07-10T12:36:42;4.40;;;1.65;;
37485;SDS011;23341;50.296;18.960;2022-07-10T12:41:54;0.93;;;0.73;;
37485;SDS011;23341;50.296;18.960;2022-07-10T12:47:00;7.47;;;3.08;;
37485;SDS011;23341;50.296;18.960;2022-07-10T12:52:18;5.82;;;2.58;;
37485;SDS011;23341;50.296;18.960;2022-07-10T12:57:22;4.43;;;2.20;;
37485;SDS011;23341;50.296;18.960;2022-07-10T13:02:26;2.83;;;1.13;;
37485;SDS011;23341;50.296;18.960;2022-07-10T13:07:35;2.10;;;1.27;;
37485;SDS011;23341;50.296;18.960;2022-07-10T13:12:40;1.40;;;1.25;;
37485;SDS011;23341;50.296;18.960;2022-07-10T13:17:43;2.45;;;0.80;;
37485;SDS011;23341;50.296;18.960;2022-07-10T13:22:49;3.95;;;0.93;;
37485;SDS011;23341;50.296;18.960;2022-07-10T13:27:53;2.38;;;1.05;;
37485;SDS011;23341;50.296;18.960;2022-07-10T13:32:56;1.50;;;0.90;;
37485;SDS011;23341;50.296;18.960;2022-07-10T13:38:02;4.65;;;0.90;;
37485;SDS011;23341;50.296;18.960;2022-07-10T13:43:06;1.40;;;0.80;;
37485;SDS011;23341;50.296;18.960;2022-07-10T13:48:10;1.02;;;0.82;;
37485;SDS011;23341;50.296;18.960;2022-07-10T13:53:15;6.60;;;1.25;;
37485;SDS011;23341;50.296;18.960;2022-07-10T13:58:19;1.92;;;1.08;;
37485;SDS011;23341;50.296;18.960;2022-07-10T14:03:24;3.13;;;0.90;;
37485;SDS011;23341;50.296;18.960;2022-07-10T14:08:29;4.78;;;1.27;;
37485;SDS011;23341;50.296;18.960;2022-07-10T14:13:32;10.02;;;1.10;;
37485;SDS011;23341;50.296;18.960;2022-07-10T14:18:36;2.78;;;1.08;;
37485;SDS011;23341;50.296;18.960;2022-07-10T14:23:44;0.82;;;0.68;;
37485;SDS011;23341;50.296;18.960;2022-07-10T14:28:47;1.65;;;0.68;;
37485;SDS011;23341;50.296;18.960;2022-07-10T14:33:51;1.75;;;1.17;;
37485;SDS011;23341;50.296;18.960;2022-07-10T14:38:56;2.15;;;1.00;;
37485;SDS011;23341;50.296;18.960;2022-07-10T14:44:00;2.33;;;0.90;;
37485;SDS011;23341;50.296;18.960;2022-07-10T14:49:03;0.77;;;0.70;;
37485;SDS011;23341;50.296;18.960;2022-07-10T14:54:08;1.10;;;0.60;;
37485;SDS011;23341;50.296;18.960;2022-07-10T14:59:12;1.08;;;0.70;;
37485;SDS011;23341;50.296;18.960;2022-07-10T15:04:17;2.00;;;0.75;;
37485;SDS011;23341;50.296;18.960;2022-07-10T15:09:22;2.10;;;0.68;;
37485;SDS011;23341;50.296;18.960;2022-07-10T15:14:25;1.58;;;0.77;;
37485;SDS011;23341;50.296;18.960;2022-07-10T15:19:29;1.42;;;0.98;;
37485;SDS011;23341;50.296;18.960;2022-07-10T15:24:34;2.60;;;0.77;;
37485;SDS011;23341;50.296;18.960;2022-07-10T15:29:38;1.60;;;0.93;;
37485;SDS011;23341;50.296;18.960;2022-07-10T15:34:41;4.88;;;1.73;;
37485;SDS011;23341;50.296;18.960;2022-07-10T15:39:46;2.22;;;0.88;;
37485;SDS011;23341;50.296;18.960;2022-07-10T15:44:49;2.72;;;0.80;;
37485;SDS011;23341;50.296;18.960;2022-07-10T15:49:53;3.08;;;1.80;;
37485;SDS011;23341;50.296;18.960;2022-07-10T15:54:57;2.08;;;0.85;;
37485;SDS011;23341;50.296;18.960;2022-07-10T16:00:01;2.58;;;1.20;;
37485;SDS011;23341;50.296;18.960;2022-07-10T16:05:07;1.90;;;0.90;;
37485;SDS011;23341;50.296;18.960;2022-07-10T16:10:13;2.80;;;1.50;;
37485;SDS011;23341;50.296;18.960;2022-07-10T16:15:16;2.78;;;1.70;;
37485;SDS011;23341;50.296;18.960;2022-07-10T16:20:20;2.70;;;1.75;;
37485;SDS011;23341;50.296;18.960;2022-07-10T16:25:25;2.75;;;1.70;;
37485;SDS011;23341;50.296;18.960;2022-07-10T16:30:46;3.35;;;1.60;;
37485;SDS011;23341;50.296;18.960;2022-07-10T16:35:49;1.13;;;1.05;;
37485;SDS011;23341;50.296;18.960;2022-07-10T16:40:54;4.18;;;1.67;;
37485;SDS011;23341;50.296;18.960;2022-07-10T16:45:58;1.92;;;1.67;;
37485;SDS011;23341;50.296;18.960;2022-07-10T16:51:03;3.55;;;1.02;;
37485;SDS011;23341;50.296;18.960;2022-07-10T16:56:15;1.25;;;1.00;;
37485;SDS011;23341;50.296;18.960;2022-07-10T17:01:19;1.75;;;1.20;;
37485;SDS011;23341;50.296;18.960;2022-07-10T17:06:22;1.50;;;1.02;;
37485;SDS011;23341;50.296;18.960;2022-07-10T17:11:27;3.05;;;1.60;;
37485;SDS011;23341;50.296;18.960;2022-07-10T17:16:32;6.72;;;1.33;;
37485;SDS011;23341;50.296;18.960;2022-07-10T17:21:36;3.95;;;1.15;;
37485;SDS011;23341;50.296;18.960;2022-07-10T17:27:00;6.75;;;1.00;;
37485;SDS011;23341;50.296;18.960;2022-07-10T17:32:04;5.07;;;1.40;;
37485;SDS011;23341;50.296;18.960;2022-07-10T17:37:08;27.10;;;10.07;;
37485;SDS011;23341;50.296;18.960;2022-07-10T17:42:13;5.95;;;3.22;;
37485;SDS011;23341;50.296;18.960;2022-07-10T17:47:16;3.05;;;1.50;;
37485;SDS011;23341;50.296;18.960;2022-07-10T17:52:25;2.50;;;1.40;;
37485;SDS011;23341;50.296;18.960;2022-07-10T17:57:30;5.82;;;1.60;;
37485;SDS011;23341;50.296;18.960;2022-07-10T18:02:33;2.55;;;1.20;;
37485;SDS011;23341;50.296;18.960;2022-07-10T18:07:37;1.35;;;1.10;;
37485;SDS011;23341;50.296;18.960;2022-07-10T18:12:42;5.65;;;2.40;;
37485;SDS011;23341;50.296;18.960;2022-07-10T18:17:45;8.85;;;4.60;;
37485;SDS011;23341;50.296;18.960;2022-07-10T18:22:51;31.85;;;14.55;;
37485;SDS011;23341;50.296;18.960;2022-07-10T18:27:55;5.60;;;3.28;;
37485;SDS011;23341;50.296;18.960;2022-07-10T18:32:59;3.65;;;2.03;;
37485;SDS011;23341;50.296;18.960;2022-07-10T18:38:20;4.03;;;1.90;;
37485;SDS011;23341;50.296;18.960;2022-07-10T18:43:25;6.43;;;2.25;;
37485;SDS011;23341;50.296;18.960;2022-07-10T18:48:29;4.32;;;1.80;;
37485;SDS011;23341;50.296;18.960;2022-07-10T18:53:32;5.85;;;4.80;;
37485;SDS011;23341;50.296;18.960;2022-07-10T18:58:37;5.72;;;2.28;;
37485;SDS011;23341;50.296;18.960;2022-07-10T19:03:41;3.47;;;2.53;;
37485;SDS011;23341;50.296;18.960;2022-07-10T19:08:45;5.78;;;1.40;;
37485;SDS011;23341;50.296;18.960;2022-07-10T19:13:50;5.20;;;2.58;;
37485;SDS011;23341;50.296;18.960;2022-07-10T19:18:55;2.03;;;1.50;;
37485;SDS011;23341;50.296;18.960;2022-07-10T19:24:01;2.78;;;1.70;;
37485;SDS011;23341;50.296;18.960;2022-07-10T19:29:05;7.10;;;1.85;;
37485;SDS011;23341;50.296;18.960;2022-07-10T19:34:09;3.03;;;1.70;;
37485;SDS011;23341;50.296;18.960;2022-07-10T19:39:12;3.08;;;2.15;;
37485;SDS011;23341;50.296;18.960;2022-07-10T19:44:20;3.53;;;1.60;;
37485;SDS011;23341;50.296;18.960;2022-07-10T19:49:24;2.50;;;1.58;;
37485;SDS011;23341;50.296;18.960;2022-07-10T19:54:27;5.82;;;1.73;;
37485;SDS011;23341;50.296;18.960;2022-07-10T19:59:32;5.63;;;1.60;;
37485;SDS011;23341;50.296;18.960;2022-07-10T20:04:36;3.60;;;2.00;;
37485;SDS011;23341;50.296;18.960;2022-07-10T20:09:40;4.13;;;1.80;;
37485;SDS011;23341;50.296;18.960;2022-07-10T20:14:45;3.63;;;2.25;;
37485;SDS011;23341;50.296;18.960;2022-07-10T20:19:48;4.78;;;1.95;;
37485;SDS011;23341;50.296;18.960;2022-07-10T20:24:52;6.32;;;2.50;;
37485;SDS011;23341;50.296;18.960;2022-07-10T20:29:57;6.05;;;2.63;;
37485;SDS011;23341;50.296;18.960;2022-07-10T20:35:00;6.05;;;1.90;;
37485;SDS011;23341;50.296;18.960;2022-07-10T20:40:04;6.32;;;2.17;;
37485;SDS011;23341;50.296;18.960;2022-07-10T20:45:10;5.13;;;2.78;;
37485;SDS011;23341;50.296;18.960;2022-07-10T20:50:15;5.95;;;2.70;;
37485;SDS011;23341;50.296;18.960;2022-07-10T20:55:19;5.40;;;2.47;;
37485;SDS011;23341;50.296;18.960;2022-07-10T21:00:26;5.45;;;2.28;;
37485;SDS011;23341;50.296;18.960;2022-07-10T21:05:29;4.13;;;2.28;;
37485;SDS011;23341;50.296;18.960;2022-07-10T21:10:34;13.25;;;2.90;;
37485;SDS011;23341;50.296;18.960;2022-07-10T21:15:45;5.95;;;2.92;;
37485;SDS011;23341;50.296;18.960;2022-07-10T21:20:48;7.88;;;3.38;;
37485;SDS011;23341;50.296;18.960;2022-07-10T21:25:53;8.93;;;3.72;;
37485;SDS011;23341;50.296;18.960;2022-07-10T21:30:58;7.03;;;3.42;;
37485;SDS011;23341;50.296;18.960;2022-07-10T21:36:02;4.55;;;3.00;;
37485;SDS011;23341;50.296;18.960;2022-07-10T21:41:05;6.00;;;2.20;;
37485;SDS011;23341;50.296;18.960;2022-07-10T21:46:11;4.45;;;1.63;;
37485;SDS011;23341;50.296;18.960;2022-07-10T21:51:15;4.00;;;1.63;;
37485;SDS011;23341;50.296;18.960;2022-07-10T21:56:18;4.15;;;1.92;;
37485;SDS011;23341;50.296;18.960;2022-07-10T22:01:23;4.82;;;2.42;;
37485;SDS011;23341;50.296;18.960;2022-07-10T22:06:27;6.38;;;2.38;;
37485;SDS011;23341;50.296;18.960;2022-07-10T22:11:30;2.75;;;1.80;;
37485;SDS011;23341;50.296;18.960;2022-07-10T22:16:35;3.22;;;1.67;;
37485;SDS011;23341;50.296;18.960;2022-07-10T22:21:39;3.75;;;1.77;;
37485;SDS011;23341;50.296;18.960;2022-07-10T22:26:43;6.07;;;1.65;;
37485;SDS011;23341;50.296;18.960;2022-07-10T22:31:48;3.83;;;1.50;;
37485;SDS011;23341;50.296;18.960;2022-07-10T22:36:52;6.57;;;2.40;;
37485;SDS011;23341;50.296;18.960;2022-07-10T22:41:55;4.97;;;2.25;;
37485;SDS011;23341;50.296;18.960;2022-07-10T22:47:00;7.25;;;2.85;;
37485;SDS011;23341;50.296;18.960;2022-07-10T22:52:03;5.78;;;2.65;;
37485;SDS011;23341;50.296;18.960;2022-07-10T22:57:07;8.10;;;4.97;;
37485;SDS011;23341;50.296;18.960;2022-07-10T23:02:12;4.07;;;2.60;;
37485;SDS011;23341;50.296;18.960;2022-07-10T23:07:15;5.32;;;3.38;;
37485;SDS011;23341;50.296;18.960;2022-07-10T23:12:19;5.35;;;2.08;;
37485;SDS011;23341;50.296;18.960;2022-07-10T23:17:24;6.18;;;3.00;;
37485;SDS011;23341;50.296;18.960;2022-07-10T23:22:27;11.75;;;4.25;;
37485;SDS011;23341;50.296;18.960;2022-07-10T23:27:31;11.90;;;4.82;;
37485;SDS011;23341;50.296;18.960;2022-07-10T23:32:36;10.23;;;4.30;;
37485;SDS011;23341;50.296;18.960;2022-07-10T23:37:39;10.75;;;4.32;;
37485;SDS011;23341;50.296;18.960;2022-07-10T23:42:42;14.10;;;4.35;;
37485;SDS011;23341;50.296;18.960;2022-07-10T23:47:47;10.07;;;3.30;;
37485;SDS011;23341;50.296;18.960;2022-07-10T23:52:51;8.65;;;3.05;;
37485;SDS011;23341;50.296;18.960;2022-07-10T23:57:57;8.13;;;3.45;;
